Time;durP1;ratioP1;P1;durP2;ratioP2;P2;SDS_P1;SDS_P2;PMS_P1;PMS_P2;Temp;Humidity;BMP_temperature;BMP_pressure;BME280_temperature;BME280_humidity;BME280_pressure;Samples;Min_cycle;Max_cycle;Signal;HPM_P1;HPM_P2
2022/03/25 00:00:31;;;;;;;27.17;20.03;;;10.30;65.80;;;;;;10436192;28;20214;-84
2022/03/25 00:05:33;;;;;;;23.93;20.63;;;10.30;67.40;;;;;;10462516;28;20640;-85
2022/03/25 00:10:35;;;;;;;24.67;18.40;;;10.30;66.90;;;;;;10474469;28;20201;-84
2022/03/25 00:15:39;;;;;;;20.63;17.90;;;10.20;66.80;;;;;;10444082;28;20236;-85
2022/03/25 00:20:41;;;;;;;23.23;18.47;;;10.30;65.80;;;;;;10435966;28;20229;-84
2022/03/25 00:25:43;;;;;;;25.23;20.10;;;10.20;66.20;;;;;;10466747;28;20221;-84
2022/03/25 00:30:47;;;;;;;25.60;19.07;;;10.10;66.30;;;;;;10430468;28;20193;-85
2022/03/25 00:35:49;;;;;;;24.00;19.20;;;10.00;66.70;;;;;;10461673;28;20624;-85
2022/03/25 00:40:51;;;;;;;25.60;19.63;;;9.90;68.50;;;;;;10442717;28;20220;-85
2022/03/25 00:45:55;;;;;;;22.03;18.40;;;9.90;68.90;;;;;;10441477;28;20223;-85
2022/03/25 00:50:58;;;;;;;22.97;18.90;;;9.90;69.50;;;;;;10456616;28;20703;-85
2022/03/25 00:56:01;;;;;;;21.97;18.40;;;9.90;69.30;;;;;;10455334;28;20231;-85
2022/03/25 01:01:05;;;;;;;24.63;19.67;;;9.80;68.70;;;;;;10453423;28;20230;-85
2022/03/25 01:06:07;;;;;;;23.40;19.60;;;9.70;68.50;;;;;;10451611;28;20705;-85
2022/03/25 01:11:10;;;;;;;26.07;19.97;;;9.70;70.00;;;;;;10457700;28;20245;-84
2022/03/25 01:16:14;;;;;;;21.80;19.17;;;9.70;71.40;;;;;;10454562;28;20221;-84
2022/03/25 01:21:17;;;;;;;25.33;19.70;;;9.70;71.40;;;;;;10457149;28;20244;-84
2022/03/25 01:26:19;;;;;;;23.37;18.57;;;9.60;71.30;;;;;;10446679;28;20584;-84
2022/03/25 01:31:24;;;;;;;24.50;19.90;;;9.70;70.90;;;;;;10461625;28;20197;-85
2022/03/25 01:36:26;;;;;;;23.93;19.40;;;9.60;70.80;;;;;;10439220;28;20620;-85
2022/03/25 01:41:28;;;;;;;24.27;18.80;;;9.60;70.60;;;;;;10458622;28;20703;-84
2022/03/25 01:46:32;;;;;;;25.33;18.57;;;9.50;71.30;;;;;;10471847;28;20248;-85
2022/03/25 01:51:37;;;;;;;23.03;18.90;;;9.40;71.40;;;;;;10486890;28;20202;-85
2022/03/25 01:56:39;;;;;;;26.03;20.40;;;9.40;72.20;;;;;;10450740;28;20729;-85
2022/03/25 02:01:43;;;;;;;21.17;18.87;;;9.30;71.40;;;;;;10434270;28;20225;-85
2022/03/25 02:06:45;;;;;;;23.00;19.40;;;9.30;72.10;;;;;;10437403;28;20243;-85
2022/03/25 02:11:48;;;;;;;25.33;19.70;;;9.20;71.50;;;;;;10457514;28;20193;-85
2022/03/25 02:16:52;;;;;;;22.80;19.90;;;9.10;71.60;;;;;;10442355;28;20598;-85
2022/03/25 02:21:55;;;;;;;23.00;19.30;;;9.10;71.50;;;;;;10442947;28;20438;-85
2022/03/25 02:27:04;;;;;;;21.80;17.60;;;9.00;71.10;;;;;;10458462;28;20225;-85
2022/03/25 02:32:07;;;;;;;22.80;19.10;;;8.90;70.30;;;;;;10440733;28;20623;-85
2022/03/25 02:37:10;;;;;;;23.20;19.50;;;8.80;72.00;;;;;;10455779;28;20213;-85
2022/03/25 02:42:13;;;;;;;25.97;19.00;;;8.80;72.30;;;;;;10442885;28;20221;-85
2022/03/25 02:47:15;;;;;;;28.80;19.40;;;8.70;73.60;;;;;;10444534;28;20302;-85
2022/03/25 02:52:19;;;;;;;24.17;18.67;;;8.80;70.50;;;;;;10463310;28;20329;-85
2022/03/25 02:57:21;;;;;;;21.70;18.63;;;8.70;70.30;;;;;;10432345;28;20251;-86
2022/03/25 03:02:23;;;;;;;24.10;19.80;;;8.50;71.40;;;;;;10442285;28;20225;-85
2022/03/25 03:07:26;;;;;;;28.93;19.90;;;8.40;72.50;;;;;;10515877;23;20315;-80
2022/03/25 03:12:28;;;;;;;24.77;20.23;;;8.50;72.10;;;;;;10501143;28;20280;-79
2022/03/25 03:17:31;;;;;;;25.33;20.27;;;8.40;72.10;;;;;;10493200;28;20221;-79
2022/03/25 03:22:34;;;;;;;27.07;21.00;;;8.40;73.30;;;;;;10497760;28;20232;-80
2022/03/25 03:27:36;;;;;;;22.47;19.30;;;8.40;73.70;;;;;;10498189;28;20220;-80
2022/03/25 03:32:38;;;;;;;22.80;19.50;;;8.40;73.00;;;;;;10483154;28;20216;-80
2022/03/25 03:37:44;;;;;;;24.97;19.57;;;8.40;71.80;;;;;;10498114;28;20768;-80
2022/03/25 03:42:47;;;;;;;24.80;19.13;;;8.20;73.20;;;;;;10475822;28;20239;-79
2022/03/25 03:47:49;;;;;;;23.47;20.60;;;8.20;73.10;;;;;;10495879;28;20213;-80
2022/03/25 03:52:56;;;;;;;25.30;19.60;;;8.20;73.20;;;;;;10498553;28;20295;-80
2022/03/25 03:57:58;;;;;;;26.00;20.27;;;8.10;73.90;;;;;;10498805;28;20598;-80
2022/03/25 04:03:03;;;;;;;24.17;20.87;;;8.10;74.30;;;;;;10500281;28;20200;-80
2022/03/25 04:08:08;;;;;;;24.00;18.87;;;8.10;73.40;;;;;;10495319;28;20255;-80
2022/03/25 04:13:10;;;;;;;27.87;21.43;;;8.10;73.50;;;;;;10502055;28;20621;-80
2022/03/25 04:18:12;;;;;;;22.90;20.40;;;8.00;73.60;;;;;;10471628;28;20201;-80
2022/03/25 04:23:16;;;;;;;24.10;19.67;;;8.00;74.90;;;;;;10499259;28;20228;-80
2022/03/25 04:28:19;;;;;;;24.50;20.90;;;8.00;75.30;;;;;;10477570;28;20311;-80
2022/03/25 04:33:21;;;;;;;23.37;20.37;;;8.00;75.70;;;;;;10491534;28;20231;-80
2022/03/25 04:38:24;;;;;;;25.93;21.07;;;8.00;74.20;;;;;;10487197;28;20208;-80
2022/03/25 04:43:26;;;;;;;25.70;21.53;;;8.00;74.70;;;;;;10497560;28;20203;-80
2022/03/25 04:48:29;;;;;;;28.20;21.40;;;7.90;74.90;;;;;;10499266;28;20200;-80
2022/03/25 04:53:38;;;;;;;28.50;20.30;;;7.90;75.50;;;;;;10494414;28;20699;-80
2022/03/25 04:58:40;;;;;;;27.17;23.17;;;7.90;73.90;;;;;;10499145;28;20208;-80
2022/03/25 05:03:42;;;;;;;25.47;22.00;;;7.80;74.80;;;;;;10493034;28;20681;-80
2022/03/25 05:08:46;;;;;;;31.20;24.43;;;7.80;75.80;;;;;;10497092;28;20555;-80
2022/03/25 05:13:48;;;;;;;27.67;20.47;;;7.80;76.60;;;;;;10472591;28;20224;-79
2022/03/25 05:18:51;;;;;;;27.17;20.50;;;7.80;74.40;;;;;;10486182;28;20620;-79
2022/03/25 05:23:54;;;;;;;29.03;21.33;;;7.70;76.20;;;;;;10487929;28;20303;-80
2022/03/25 05:28:57;;;;;;;26.03;21.17;;;7.70;76.20;;;;;;10492356;28;20268;-80
2022/03/25 05:33:59;;;;;;;27.80;21.60;;;7.70;75.10;;;;;;10476293;28;20220;-80
2022/03/25 05:39:03;;;;;;;33.57;20.30;;;7.60;76.30;;;;;;10476777;28;20212;-79
2022/03/25 05:44:06;;;;;;;25.13;20.57;;;7.60;75.10;;;;;;10498603;28;20240;-79
2022/03/25 05:49:08;;;;;;;31.13;22.57;;;7.60;74.80;;;;;;10497574;28;20251;-79
2022/03/25 05:54:12;;;;;;;25.07;21.07;;;7.60;76.50;;;;;;10475785;28;20232;-79
2022/03/25 05:59:14;;;;;;;27.53;21.07;;;7.60;76.30;;;;;;10484764;28;20291;-79
2022/03/25 06:04:17;;;;;;;26.50;21.03;;;7.60;77.40;;;;;;10502013;28;20229;-79
2022/03/25 06:09:20;;;;;;;26.60;21.37;;;7.60;76.40;;;;;;10481968;28;20675;-79
2022/03/25 06:14:22;;;;;;;30.20;22.43;;;7.70;76.80;;;;;;10498189;28;20310;-79
2022/03/25 06:19:24;;;;;;;36.30;24.20;;;7.70;77.50;;;;;;10498377;28;20262;-79
2022/03/25 06:24:28;;;;;;;31.63;22.33;;;7.80;77.60;;;;;;10500314;28;20221;-79
2022/03/25 06:29:30;;;;;;;33.47;22.33;;;7.90;77.80;;;;;;10497013;28;20196;-79
2022/03/25 06:34:32;;;;;;;30.97;21.77;;;8.00;77.40;;;;;;10487604;28;20307;-79
2022/03/25 06:39:35;;;;;;;31.30;22.20;;;8.00;76.80;;;;;;10500261;28;20670;-79
2022/03/25 06:44:37;;;;;;;27.60;21.57;;;8.10;77.30;;;;;;10479474;28;20219;-79
2022/03/25 06:49:40;;;;;;;28.30;22.10;;;8.20;78.00;;;;;;10479294;28;20200;-79
2022/03/25 06:54:44;;;;;;;28.20;22.60;;;8.30;77.40;;;;;;10486013;28;20286;-79
2022/03/25 06:59:47;;;;;;;28.20;23.27;;;8.40;76.80;;;;;;10491215;28;20205;-79
2022/03/25 07:04:50;;;;;;;26.23;21.60;;;8.50;76.90;;;;;;10495684;28;20220;-79
2022/03/25 07:09:54;;;;;;;27.37;21.40;;;8.60;76.60;;;;;;10496496;28;20295;-79
2022/03/25 07:14:56;;;;;;;28.30;21.83;;;8.70;76.80;;;;;;10495233;28;20224;-79
2022/03/25 07:19:58;;;;;;;30.50;22.10;;;8.80;76.10;;;;;;10486759;28;20200;-79
2022/03/25 07:25:02;;;;;;;31.23;23.63;;;8.90;75.70;;;;;;10490737;28;20227;-79
2022/03/25 07:30:06;;;;;;;29.57;24.07;;;9.10;76.10;;;;;;10492898;28;20193;-79
2022/03/25 07:35:10;;;;;;;32.43;22.40;;;9.20;76.20;;;;;;10492979;28;20289;-79
2022/03/25 07:40:15;;;;;;;29.93;22.87;;;9.30;75.60;;;;;;10495200;28;20208;-79
2022/03/25 07:45:17;;;;;;;28.47;23.67;;;9.50;76.30;;;;;;10495427;28;20220;-79
2022/03/25 07:50:49;;;;;;;29.23;24.80;;;9.60;76.00;;;;;;10491769;28;20584;-79
2022/03/25 07:55:56;;;;;;;30.37;23.63;;;9.80;75.40;;;;;;10489956;28;20250;-79
2022/03/25 08:00:58;;;;;;;25.67;22.07;;;9.90;75.60;;;;;;10492509;28;20200;-79
2022/03/25 08:06:00;;;;;;;28.70;23.73;;;10.20;74.40;;;;;;10491666;28;20600;-78
2022/03/25 08:11:03;;;;;;;25.37;22.37;;;10.50;73.30;;;;;;10462981;28;20200;-78
2022/03/25 08:16:06;;;;;;;26.00;22.20;;;10.80;72.80;;;;;;10492942;28;20212;-79
2022/03/25 08:21:08;;;;;;;26.57;22.60;;;11.10;73.40;;;;;;10492414;28;20196;-78
2022/03/25 08:31:34;;;;;;;32.33;23.60;;;11.60;72.50;;;;;;10488399;28;20287;-79
2022/03/25 08:36:36;;;;;;;29.13;22.83;;;11.90;72.00;;;;;;10489832;28;20212;-79
2022/03/25 08:41:40;;;;;;;30.00;22.60;;;12.10;71.20;;;;;;10492484;28;20671;-79
2022/03/25 08:46:42;;;;;;;30.73;23.40;;;12.30;71.20;;;;;;10487509;28;20285;-79
2022/03/25 08:51:44;;;;;;;32.57;25.33;;;12.50;71.00;;;;;;10486075;28;20685;-80
2022/03/25 08:56:49;;;;;;;28.20;23.70;;;12.70;68.70;;;;;;10492058;28;20216;-80
2022/03/25 09:01:51;;;;;;;28.60;23.23;;;12.80;69.40;;;;;;10487552;28;20200;-79
2022/03/25 09:06:56;;;;;;;26.90;22.43;;;13.00;69.40;;;;;;10496831;22;20232;-85
2022/03/25 09:12:00;;;;;;;30.00;23.80;;;13.10;69.40;;;;;;10447505;28;20297;-85
2022/03/25 09:17:04;;;;;;;29.67;23.83;;;13.30;66.10;;;;;;10470841;28;20548;-85
2022/03/25 09:22:06;;;;;;;30.90;23.67;;;13.50;65.40;;;;;;10486965;28;20572;-84
2022/03/25 09:27:10;;;;;;;27.40;23.00;;;13.70;65.70;;;;;;10494425;28;20242;-85
2022/03/25 09:32:12;;;;;;;29.47;22.20;;;13.90;64.20;;;;;;10484747;28;20208;-84
2022/03/25 09:37:15;;;;;;;29.07;22.60;;;14.20;62.70;;;;;;10490776;28;20254;-85
2022/03/25 09:42:20;;;;;;;28.60;23.50;;;14.50;62.10;;;;;;10472114;28;20574;-84
2022/03/25 09:47:22;;;;;;;26.70;21.60;;;14.70;61.80;;;;;;10518098;28;20752;-85
2022/03/25 09:52:26;;;;;;;33.23;23.20;;;15.00;62.00;;;;;;10511392;28;20212;-85
2022/03/25 09:57:30;;;;;;;29.00;24.00;;;15.30;59.80;;;;;;10473694;28;20246;-85
2022/03/25 10:02:32;;;;;;;30.43;23.17;;;15.60;59.70;;;;;;10494727;28;20276;-84
2022/03/25 10:07:35;;;;;;;28.70;22.70;;;15.80;59.40;;;;;;10485817;28;20228;-85
2022/03/25 10:12:39;;;;;;;34.53;25.53;;;16.10;58.20;;;;;;10483450;28;20255;-85
2022/03/25 10:17:46;;;;;;;35.43;24.70;;;16.20;57.50;;;;;;10492749;28;20295;-85
2022/03/25 10:23:09;;;;;;;30.20;23.87;;;16.10;57.10;;;;;;10504518;28;20252;-85
2022/03/25 10:28:27;;;;;;;31.80;23.57;;;15.90;57.30;;;;;;10492736;28;20625;-84
2022/03/25 10:33:32;;;;;;;28.33;22.73;;;15.70;55.60;;;;;;10481248;28;20237;-84
2022/03/25 10:38:43;;;;;;;27.77;21.83;;;15.50;57.30;;;;;;10494436;28;20707;-85
2022/03/25 10:43:56;;;;;;;29.80;23.17;;;15.30;57.40;;;;;;10512779;28;20516;-85
2022/03/25 10:49:03;;;;;;;31.40;24.43;;;15.10;54.70;;;;;;10509305;28;20228;-85
2022/03/25 10:54:08;;;;;;;29.90;24.67;;;15.10;53.80;;;;;;10511696;28;20216;-85
2022/03/25 10:59:21;;;;;;;34.90;25.97;;;15.00;57.80;;;;;;10513167;28;20201;-86
2022/03/25 11:04:24;;;;;;;28.10;23.30;;;14.90;58.10;;;;;;10486174;28;20546;-85
2022/03/25 11:09:27;;;;;;;33.60;25.57;;;14.80;57.70;;;;;;10472343;28;20209;-86
2022/03/25 11:14:30;;;;;;;32.10;24.50;;;14.80;59.80;;;;;;10496251;28;20243;-85
2022/03/25 11:19:33;;;;;;;30.07;25.23;;;14.70;58.90;;;;;;10497767;28;20197;-85
2022/03/25 11:24:38;;;;;;;32.70;23.10;;;14.70;59.90;;;;;;10479337;28;20783;-85
2022/03/25 11:29:46;;;;;;;26.77;22.90;;;14.70;58.20;;;;;;10495854;28;20197;-85
2022/03/25 11:35:19;;;;;;;27.57;23.00;;;14.70;57.00;;;;;;10498158;28;20209;-85
2022/03/25 11:40:28;;;;;;;29.13;22.10;;;14.80;55.20;;;;;;10473907;28;20207;-85
2022/03/25 11:45:36;;;;;;;24.97;21.70;;;14.80;55.90;;;;;;10502755;28;20224;-85
2022/03/25 11:50:40;;;;;;;28.40;24.17;;;14.80;60.00;;;;;;10465501;28;20207;-85
2022/03/25 11:55:55;;;;;;;26.00;21.63;;;14.80;56.90;;;;;;10472009;28;20223;-85
2022/03/25 12:01:05;;;;;;;31.33;22.63;;;14.70;59.50;;;;;;10495606;28;20244;-85
2022/03/25 12:06:07;;;;;;;29.10;23.63;;;14.70;60.00;;;;;;10532844;22;20256;-85
2022/03/25 12:11:11;;;;;;;27.00;21.67;;;14.70;57.40;;;;;;10496650;28;20266;-83
2022/03/25 12:16:53;;;;;;;26.40;22.93;;;14.80;55.80;;;;;;10490901;28;20250;-84
2022/03/25 12:21:56;;;;;;;28.00;20.67;;;14.90;55.30;;;;;;10452018;28;20292;-84
2022/03/25 12:27:02;;;;;;;21.13;17.77;;;15.00;53.90;;;;;;10465251;28;20311;-84
2022/03/25 12:32:08;;;;;;;27.00;20.43;;;15.10;53.70;;;;;;10454437;28;20225;-84
2022/03/25 12:37:11;;;;;;;23.13;19.70;;;15.40;49.60;;;;;;10470865;28;20220;-85
2022/03/25 12:42:14;;;;;;;29.27;21.90;;;15.50;51.80;;;;;;10487130;28;20208;-84
2022/03/25 12:47:17;;;;;;;24.97;20.37;;;15.60;50.90;;;;;;10474188;28;20208;-84
2022/03/25 12:52:24;;;;;;;29.53;23.53;;;15.80;51.60;;;;;;10459086;28;20744;-85
2022/03/25 12:57:35;;;;;;;24.93;20.70;;;15.80;52.60;;;;;;10481582;28;20218;-85
2022/03/25 13:02:40;;;;;;;29.20;22.53;;;15.90;52.50;;;;;;10477469;28;20240;-85
2022/03/25 13:07:45;;;;;;;28.03;22.73;;;15.90;53.00;;;;;;10449482;28;20250;-84
2022/03/25 13:12:51;;;;;;;23.47;20.00;;;16.00;52.00;;;;;;10463103;28;20304;-85
2022/03/25 13:17:57;;;;;;;22.60;19.50;;;16.00;50.50;;;;;;10441213;28;20208;-85
2022/03/25 13:23:05;;;;;;;33.30;22.07;;;15.90;54.60;;;;;;10473901;28;20215;-85
2022/03/25 13:28:09;;;;;;;27.23;21.33;;;15.80;53.50;;;;;;10466290;28;20621;-85
2022/03/25 13:33:14;;;;;;;25.23;20.00;;;15.80;52.50;;;;;;10471490;28;20211;-85
2022/03/25 13:38:18;;;;;;;26.90;21.50;;;15.80;53.30;;;;;;10443706;28;20563;-85
2022/03/25 13:43:23;;;;;;;27.00;20.97;;;15.80;53.70;;;;;;10472806;28;20228;-85
2022/03/25 13:48:36;;;;;;;28.67;23.33;;;15.80;55.70;;;;;;10451053;28;20248;-85
2022/03/25 13:53:40;;;;;;;28.17;22.40;;;15.80;55.00;;;;;;10451276;28;20208;-85
2022/03/25 13:58:49;;;;;;;25.37;21.50;;;15.80;54.20;;;;;;10443450;28;20287;-85
2022/03/25 14:04:06;;;;;;;24.23;20.40;;;15.80;53.30;;;;;;10465811;28;20338;-85
2022/03/25 14:09:26;;;;;;;25.50;21.83;;;15.90;53.00;;;;;;10467732;28;20619;-85
2022/03/25 14:14:30;;;;;;;27.00;20.70;;;16.00;51.90;;;;;;10477036;28;20638;-85
2022/03/25 14:19:37;;;;;;;29.07;23.33;;;15.90;53.70;;;;;;10433036;28;20205;-85
2022/03/25 14:24:40;;;;;;;27.93;23.13;;;16.00;52.50;;;;;;10439150;28;20374;-85
2022/03/25 14:29:42;;;;;;;28.00;24.40;;;16.00;52.50;;;;;;10469138;28;20205;-84
2022/03/25 14:34:46;;;;;;;29.93;24.90;;;16.10;53.20;;;;;;10489078;28;20510;-84
2022/03/25 14:39:48;;;;;;;26.57;21.77;;;16.20;52.40;;;;;;10501574;28;20204;-84
2022/03/25 14:44:50;;;;;;;27.30;23.07;;;16.20;53.50;;;;;;10499932;28;20262;-84
2022/03/25 14:49:54;;;;;;;25.90;22.50;;;16.30;54.20;;;;;;10476594;28;20193;-84
2022/03/25 14:54:56;;;;;;;26.20;20.87;;;16.30;52.90;;;;;;10456947;28;20249;-84
2022/03/25 14:59:59;;;;;;;26.37;21.77;;;16.50;51.50;;;;;;10449339;28;20210;-84
2022/03/25 15:05:03;;;;;;;21.73;18.50;;;16.60;49.40;;;;;;10484918;28;20622;-85
2022/03/25 15:10:07;;;;;;;22.60;19.03;;;16.60;51.00;;;;;;10464168;28;20200;-85
2022/03/25 15:15:10;;;;;;;21.77;18.60;;;16.60;50.80;;;;;;10490059;28;20209;-84
2022/03/25 15:20:14;;;;;;;22.17;18.87;;;16.60;50.30;;;;;;10434957;28;20746;-84
2022/03/25 15:25:18;;;;;;;24.90;20.53;;;16.60;50.60;;;;;;10467510;28;20216;-84
2022/03/25 15:35:42;;;;;;;25.50;19.33;;;16.50;50.20;;;;;;10475669;28;20319;-84
2022/03/25 15:40:45;;;;;;;23.27;20.37;;;16.50;54.20;;;;;;10465134;28;20564;-84
2022/03/25 15:45:48;;;;;;;24.53;20.10;;;16.40;54.20;;;;;;10479037;28;20607;-84
2022/03/25 15:50:51;;;;;;;23.83;20.40;;;16.30;54.60;;;;;;10481590;28;20200;-84
2022/03/25 15:55:54;;;;;;;24.30;20.87;;;16.20;55.50;;;;;;10482736;28;20265;-84
2022/03/25 16:01:00;;;;;;;25.20;21.30;;;16.30;50.70;;;;;;10450436;28;20313;-84
2022/03/25 16:06:05;;;;;;;27.33;20.97;;;16.20;52.90;;;;;;10439818;28;20252;-85
2022/03/25 16:11:07;;;;;;;26.30;22.60;;;16.20;53.70;;;;;;10463318;28;20224;-85
2022/03/25 16:16:10;;;;;;;23.20;19.37;;;16.20;51.60;;;;;;10469155;28;20307;-84
2022/03/25 16:21:13;;;;;;;25.27;20.50;;;16.20;53.00;;;;;;10463900;28;20312;-84
2022/03/25 16:26:17;;;;;;;24.17;21.00;;;16.10;53.40;;;;;;10459760;28;20284;-85
2022/03/25 16:31:19;;;;;;;22.60;20.00;;;16.10;50.70;;;;;;10436729;28;20783;-84
2022/03/25 16:36:23;;;;;;;22.70;20.17;;;16.20;50.40;;;;;;10455932;28;20247;-85
2022/03/25 16:41:26;;;;;;;22.40;19.53;;;16.20;49.70;;;;;;10478215;28;20259;-85
2022/03/25 16:46:29;;;;;;;26.70;20.30;;;16.20;54.20;;;;;;10491942;28;20228;-84
2022/03/25 16:51:32;;;;;;;21.50;19.20;;;16.10;52.30;;;;;;10446128;28;20258;-85
2022/03/25 16:56:34;;;;;;;26.67;21.20;;;16.00;54.70;;;;;;10446269;28;20602;-84
2022/03/25 17:01:38;;;;;;;26.60;22.60;;;15.90;55.80;;;;;;10461767;28;20314;-85
2022/03/25 17:06:41;;;;;;;24.83;21.43;;;15.80;50.90;;;;;;10438617;28;20228;-84
2022/03/25 17:11:44;;;;;;;25.47;20.30;;;15.80;52.50;;;;;;10438231;28;20197;-85
2022/03/25 17:16:48;;;;;;;24.77;20.83;;;15.70;56.10;;;;;;10435346;28;20225;-85
2022/03/25 17:21:51;;;;;;;31.37;23.70;;;15.60;52.00;;;;;;10451026;28;20226;-84
2022/03/25 17:26:54;;;;;;;30.20;22.93;;;15.60;50.90;;;;;;10450987;28;20232;-84
2022/03/25 17:31:56;;;;;;;29.87;23.20;;;15.60;51.60;;;;;;10469294;28;20339;-84
2022/03/25 17:36:59;;;;;;;24.57;20.77;;;15.50;54.10;;;;;;10456976;28;20267;-84
2022/03/25 17:42:02;;;;;;;26.67;23.57;;;15.40;57.60;;;;;;10446580;28;20283;-84
2022/03/25 17:47:06;;;;;;;24.50;21.90;;;15.20;56.30;;;;;;10447529;28;20221;-85
2022/03/25 17:52:13;;;;;;;24.03;20.50;;;15.10;56.10;;;;;;10465112;28;20207;-84
2022/03/25 17:57:15;;;;;;;27.13;21.83;;;15.00;55.50;;;;;;10440431;28;20278;-85
2022/03/25 18:02:17;;;;;;;28.00;24.00;;;14.90;56.40;;;;;;10465353;28;20564;-85
2022/03/25 18:07:21;;;;;;;23.80;20.57;;;14.90;55.80;;;;;;10451593;28;20224;-84
2022/03/25 18:12:23;;;;;;;25.43;20.40;;;14.80;55.50;;;;;;10481381;28;20227;-85
2022/03/25 18:17:25;;;;;;;26.37;20.47;;;14.70;55.80;;;;;;10515327;28;20213;-84
2022/03/25 18:22:29;;;;;;;28.47;21.50;;;14.60;56.40;;;;;;10457963;28;20599;-85
2022/03/25 18:27:31;;;;;;;28.87;24.37;;;14.50;55.60;;;;;;10465389;28;20224;-85
2022/03/25 18:32:33;;;;;;;28.97;23.60;;;14.40;55.60;;;;;;10466730;28;20200;-84
2022/03/25 18:37:37;;;;;;;36.00;25.60;;;14.20;56.40;;;;;;10482411;28;20251;-84
2022/03/25 18:42:40;;;;;;;24.87;21.30;;;14.10;56.10;;;;;;10498132;28;20201;-84
2022/03/25 18:47:42;;;;;;;25.77;22.93;;;13.90;57.00;;;;;;10502160;28;20250;-84
2022/03/25 18:52:45;;;;;;;28.97;24.03;;;13.80;56.90;;;;;;10480307;28;20657;-84
2022/03/25 18:57:47;;;;;;;29.77;23.80;;;13.70;56.60;;;;;;10465528;28;20300;-84
2022/03/25 19:02:50;;;;;;;30.87;25.20;;;13.60;56.80;;;;;;10468908;28;20196;-84
2022/03/25 19:07:54;;;;;;;29.87;23.67;;;13.50;56.70;;;;;;10471541;28;20282;-84
2022/03/25 19:12:57;;;;;;;30.73;25.87;;;13.40;57.00;;;;;;10463622;28;20205;-84
2022/03/25 19:17:59;;;;;;;32.97;26.97;;;13.20;56.80;;;;;;10487951;28;20254;-85
2022/03/25 19:23:02;;;;;;;29.43;23.07;;;13.10;56.70;;;;;;10503507;28;20227;-84
2022/03/25 19:28:05;;;;;;;30.13;23.87;;;13.00;56.70;;;;;;10495031;28;20293;-85
2022/03/25 19:33:08;;;;;;;31.07;25.00;;;12.90;57.30;;;;;;10472063;28;20211;-84
2022/03/25 19:38:11;;;;;;;31.40;24.27;;;12.80;57.50;;;;;;10471656;28;20221;-84
2022/03/25 19:43:15;;;;;;;34.95;25.75;;;12.80;58.00;;;;;;10474438;28;20200;-84
2022/03/25 19:48:18;;;;;;;28.73;24.33;;;12.60;58.50;;;;;;10481492;28;20254;-84
2022/03/25 19:53:22;;;;;;;31.10;23.60;;;12.60;58.30;;;;;;10472415;28;20193;-84
2022/03/25 19:58:24;;;;;;;32.73;25.20;;;12.60;58.30;;;;;;10473426;28;20261;-84
2022/03/25 20:03:26;;;;;;;32.57;25.43;;;12.40;59.10;;;;;;10476100;28;20207;-84
2022/03/25 20:08:30;;;;;;;32.73;25.33;;;12.40;58.70;;;;;;10483710;28;20220;-84
2022/03/25 20:13:32;;;;;;;30.90;24.70;;;12.30;59.50;;;;;;10449581;28;20233;-84
2022/03/25 20:18:34;;;;;;;32.43;25.30;;;12.20;59.30;;;;;;10501683;28;20240;-85
2022/03/25 20:23:38;;;;;;;36.47;28.17;;;12.20;59.10;;;;;;10483364;28;20201;-84
2022/03/25 20:28:40;;;;;;;34.70;27.40;;;12.10;59.10;;;;;;10483854;28;20496;-84
2022/03/25 20:33:42;;;;;;;33.20;26.43;;;12.10;58.80;;;;;;10473170;28;20207;-84
2022/03/25 20:38:46;;;;;;;35.03;28.30;;;12.00;59.00;;;;;;10502522;28;20287;-84
2022/03/25 20:43:49;;;;;;;35.93;28.30;;;11.90;59.00;;;;;;10498825;28;20212;-84
2022/03/25 20:48:52;;;;;;;36.37;26.70;;;11.70;59.40;;;;;;10464179;28;20201;-84
2022/03/25 20:53:58;;;;;;;32.10;26.70;;;11.70;59.80;;;;;;10471630;28;20205;-84
2022/03/25 20:59:02;;;;;;;32.17;26.83;;;11.60;60.00;;;;;;10470117;28;20205;-84
2022/03/25 21:04:05;;;;;;;32.80;25.47;;;11.60;59.90;;;;;;10475502;28;20224;-84
2022/03/25 21:09:09;;;;;;;32.77;26.67;;;11.50;60.80;;;;;;10452192;23;20251;-86
2022/03/25 21:14:11;;;;;;;31.60;26.17;;;11.50;60.10;;;;;;10458243;28;20197;-86
2022/03/25 21:19:16;;;;;;;32.97;25.10;;;11.50;60.50;;;;;;10426833;28;20332;-86
2022/03/25 21:24:20;;;;;;;31.00;25.90;;;11.50;61.30;;;;;;10446607;28;20205;-84
2022/03/25 21:29:24;;;;;;;32.90;25.30;;;11.50;61.20;;;;;;10451554;28;20225;-85
2022/03/25 21:34:26;;;;;;;33.80;25.60;;;11.40;61.30;;;;;;10443457;28;20204;-85
2022/03/25 21:39:30;;;;;;;28.50;23.67;;;11.40;60.90;;;;;;10451542;28;20283;-84
2022/03/25 21:44:32;;;;;;;30.60;24.50;;;11.30;61.70;;;;;;10425067;28;20243;-84
2022/03/25 21:49:34;;;;;;;32.50;25.23;;;11.30;61.70;;;;;;10446561;28;20605;-86
2022/03/25 21:54:38;;;;;;;37.77;26.23;;;11.20;60.80;;;;;;10433722;28;20659;-84
2022/03/25 21:59:40;;;;;;;37.93;26.70;;;11.20;61.70;;;;;;10432052;28;20206;-86
2022/03/25 22:04:43;;;;;;;37.37;27.40;;;11.10;60.80;;;;;;10428412;28;20229;-85
2022/03/25 22:09:46;;;;;;;36.77;26.77;;;11.10;62.20;;;;;;10429084;28;20202;-85
2022/03/25 22:14:48;;;;;;;33.10;25.70;;;11.00;61.30;;;;;;10424065;28;20206;-85
2022/03/25 22:19:50;;;;;;;32.10;25.23;;;11.00;61.70;;;;;;10409183;28;20225;-86
2022/03/25 22:24:54;;;;;;;33.67;26.43;;;10.90;61.90;;;;;;10441059;28;20229;-87
2022/03/25 22:29:56;;;;;;;33.00;25.97;;;10.90;62.40;;;;;;10438257;28;20210;-85
2022/03/25 22:34:58;;;;;;;33.10;24.67;;;10.80;63.00;;;;;;10453387;28;20305;-85
2022/03/25 22:40:02;;;;;;;30.97;24.67;;;10.90;62.50;;;;;;10444126;28;20738;-84
2022/03/25 22:45:06;;;;;;;34.47;25.97;;;10.90;64.50;;;;;;10419178;28;20260;-85
2022/03/25 22:50:09;;;;;;;34.30;25.60;;;10.90;62.80;;;;;;10434665;28;20205;-85
2022/03/25 22:55:12;;;;;;;32.13;25.00;;;10.90;62.20;;;;;;10426600;28;20259;-85
2022/03/25 23:00:57;;;;;;;29.80;24.00;;;10.90;62.70;;;;;;10410032;28;20262;-85
2022/03/25 23:05:59;;;;;;;33.37;26.37;;;10.80;62.40;;;;;;10429371;28;20720;-85
2022/03/25 23:11:04;;;;;;;33.93;24.43;;;10.70;62.90;;;;;;10416315;28;20683;-83
2022/03/25 23:16:06;;;;;;;31.80;24.67;;;10.70;62.80;;;;;;10411637;28;20224;-84
2022/03/25 23:21:08;;;;;;;33.33;25.83;;;10.50;63.80;;;;;;10441942;28;20854;-85
2022/03/25 23:26:13;;;;;;;32.50;25.20;;;10.50;65.60;;;;;;10440899;28;20625;-82
2022/03/25 23:31:16;;;;;;;31.47;25.33;;;10.50;64.70;;;;;;10426667;28;20205;-84
2022/03/25 23:36:19;;;;;;;30.10;25.93;;;10.50;63.70;;;;;;10432437;28;20318;-86
2022/03/25 23:41:23;;;;;;;30.63;25.40;;;10.50;63.90;;;;;;10431176;28;20333;-84
2022/03/25 23:46:25;;;;;;;31.37;25.37;;;10.40;64.20;;;;;;10417702;28;20226;-83
2022/03/25 23:51:28;;;;;;;32.17;25.30;;;10.30;64.90;;;;;;10410514;28;20201;-84
2022/03/25 23:56:32;;;;;;;31.03;24.97;;;10.30;64.30;;;;;;10417095;28;20210;-84
